createdAt,value
2018-09-22T00:00:14.127Z,3.20
2018-09-22T00:02:41.555Z,3.80
2018-09-22T00:05:09.192Z,3.50
2018-09-22T00:07:36.647Z,4.37
2018-09-22T00:10:04.396Z,3.77
2018-09-22T00:12:31.841Z,3.13
2018-09-22T00:14:59.544Z,5.83
2018-09-22T00:17:27.375Z,4.93
2018-09-22T00:19:54.861Z,4.37
2018-09-22T00:22:22.302Z,2.63
2018-09-22T00:24:49.887Z,7.00
2018-09-22T00:27:17.392Z,4.50
2018-09-22T00:29:44.800Z,4.43
2018-09-22T00:32:12.280Z,4.70
2018-09-22T00:34:39.876Z,8.63
2018-09-22T00:37:07.528Z,3.17
2018-09-22T00:39:34.960Z,3.63
2018-09-22T00:42:03.280Z,4.70
2018-09-22T00:44:30.935Z,6.03
2018-09-22T00:46:58.375Z,8.07
2018-09-22T00:49:25.808Z,3.33
2018-09-22T00:51:53.232Z,7.53
2018-09-22T00:54:20.722Z,4.07
2018-09-22T00:56:48.184Z,7.30
2018-09-22T00:59:15.676Z,2.60
2018-09-22T01:01:43.104Z,2.70
2018-09-22T01:04:10.616Z,3.80
2018-09-22T01:09:34.613Z,1.80
2018-09-22T01:12:01.981Z,3.93
2018-09-22T01:14:29.362Z,3.70
2018-09-22T01:16:56.721Z,6.20
2018-09-22T01:19:24.105Z,2.20
2018-09-22T01:21:51.467Z,3.10
2018-09-22T01:24:18.985Z,3.70
2018-09-22T01:26:46.313Z,4.87
2018-09-22T01:29:14.783Z,3.00
2018-09-22T01:31:42.602Z,2.50
2018-09-22T01:34:09.999Z,2.00
2018-09-22T01:36:37.768Z,2.33
2018-09-22T01:39:06.854Z,1.80
2018-09-22T01:41:34.347Z,3.43
2018-09-22T01:44:01.702Z,3.10
2018-09-22T01:46:29.040Z,4.20
2018-09-22T01:48:56.380Z,3.50
2018-09-22T01:51:23.802Z,5.53
2018-09-22T01:53:51.130Z,5.00
2018-09-22T01:56:18.449Z,2.60
2018-09-22T01:58:46.045Z,4.43
2018-09-22T02:01:13.425Z,1.57
2018-09-22T02:03:40.733Z,4.00
2018-09-22T02:06:08.189Z,3.47
2018-09-22T02:08:35.549Z,3.70
2018-09-22T02:11:02.955Z,9.03
2018-09-22T02:13:31.535Z,4.53
2018-09-22T02:15:58.935Z,2.30
2018-09-22T02:18:26.261Z,3.47
2018-09-22T02:20:53.693Z,3.03
2018-09-22T02:23:21.346Z,2.63
2018-09-22T02:25:48.674Z,4.73
2018-09-22T02:28:16.161Z,3.00
2018-09-22T02:30:43.561Z,5.33
2018-09-22T02:33:10.949Z,1.90
2018-09-22T02:35:38.297Z,4.97
2018-09-22T02:38:05.738Z,5.63
2018-09-22T02:40:33.101Z,3.40
2018-09-22T02:43:00.530Z,3.53
2018-09-22T02:45:28.469Z,3.30
2018-09-22T02:47:56.397Z,1.80
2018-09-22T02:50:23.912Z,7.30
2018-09-22T02:52:51.585Z,4.63
2018-09-22T02:55:19.030Z,5.30
2018-09-22T02:57:46.552Z,6.37
2018-09-22T03:00:14.190Z,3.10
2018-09-22T03:02:41.502Z,6.37
2018-09-22T03:05:09.027Z,5.10
2018-09-22T03:07:36.400Z,3.10
2018-09-22T03:10:03.986Z,2.97
2018-09-22T03:12:31.417Z,3.90
2018-09-22T03:14:58.853Z,7.60
2018-09-22T03:17:26.182Z,5.23
2018-09-22T03:19:53.548Z,5.10
2018-09-22T03:22:20.899Z,3.70
2018-09-22T03:24:48.607Z,4.00
2018-09-22T03:27:16.058Z,3.70
2018-09-22T03:29:43.462Z,4.23
2018-09-22T03:32:10.849Z,5.63
2018-09-22T03:34:38.328Z,2.40
2018-09-22T03:37:05.810Z,5.90
2018-09-22T03:39:33.157Z,4.63
2018-09-22T03:42:00.521Z,4.70
2018-09-22T03:44:28.034Z,3.73
2018-09-22T03:46:55.393Z,4.70
2018-09-22T03:49:22.773Z,5.60
2018-09-22T03:51:50.212Z,4.90
2018-09-22T03:54:17.609Z,5.30
2018-09-22T03:56:44.965Z,4.97
2018-09-22T03:59:12.419Z,3.97
2018-09-22T04:01:39.853Z,5.23
2018-09-22T04:04:07.530Z,5.40
2018-09-22T04:06:34.993Z,5.63
2018-09-22T04:09:02.509Z,4.90
2018-09-22T04:11:29.874Z,6.03
2018-09-22T04:13:57.781Z,5.23
2018-09-22T04:16:25.133Z,4.10
2018-09-22T04:18:52.525Z,8.33
2018-09-22T04:21:19.991Z,4.57
2018-09-22T04:23:47.405Z,7.90
2018-09-22T04:26:14.730Z,5.20
2018-09-22T04:28:42.138Z,4.53
2018-09-22T04:31:09.662Z,4.17
2018-09-22T04:33:37.047Z,6.60
2018-09-22T04:36:04.449Z,7.27
2018-09-22T04:38:31.942Z,6.10
2018-09-22T04:40:59.290Z,13.53
2018-09-22T04:43:26.606Z,5.80
2018-09-22T04:45:53.981Z,4.00
2018-09-22T04:48:21.344Z,5.30
2018-09-22T04:50:48.681Z,7.40
2018-09-22T04:53:16.122Z,16.80
2018-09-22T04:55:43.437Z,5.97
2018-09-22T04:58:10.765Z,6.53
2018-09-22T05:00:38.166Z,5.63
2018-09-22T05:03:05.581Z,6.07
2018-09-22T05:05:32.973Z,7.30
2018-09-22T05:08:00.306Z,5.73
2018-09-22T05:10:27.683Z,7.60
2018-09-22T05:12:55.109Z,6.97
2018-09-22T05:15:22.725Z,4.00
2018-09-22T05:17:50.093Z,8.63
2018-09-22T05:20:17.783Z,3.90
2018-09-22T05:22:45.117Z,3.20
2018-09-22T05:25:12.527Z,3.90
2018-09-22T05:27:39.837Z,5.73
2018-09-22T05:30:07.198Z,8.60
2018-09-22T05:32:34.749Z,6.80
2018-09-22T05:35:02.124Z,2.80
2018-09-22T05:37:29.519Z,5.30
2018-09-22T05:39:57.416Z,4.53
2018-09-22T05:42:24.802Z,6.47
2018-09-22T05:44:52.205Z,3.63
2018-09-22T05:47:19.689Z,3.77
2018-09-22T05:49:47.129Z,4.83
2018-09-22T05:52:14.570Z,3.63
2018-09-22T05:54:42.085Z,5.47
2018-09-22T05:57:09.604Z,8.13
2018-09-22T05:59:37.009Z,7.10
2018-09-22T06:02:04.419Z,7.13
2018-09-22T06:04:31.905Z,5.07
2018-09-22T06:06:59.309Z,2.90
2018-09-22T06:09:26.685Z,10.37
2018-09-22T06:11:54.146Z,3.33
2018-09-22T06:14:21.521Z,5.40
2018-09-22T06:16:49.409Z,5.33
2018-09-22T06:19:16.780Z,4.70
2018-09-22T06:21:44.117Z,9.90
2018-09-22T06:24:11.485Z,7.63
2018-09-22T06:26:38.845Z,6.97
2018-09-22T06:29:06.465Z,4.40
2018-09-22T06:31:33.834Z,6.90
2018-09-22T06:34:01.686Z,5.37
2018-09-22T06:36:29.162Z,8.83
2018-09-22T06:38:56.533Z,7.00
2018-09-22T06:41:24.021Z,4.10
2018-09-22T06:43:51.599Z,4.87
2018-09-22T06:46:18.964Z,4.70
2018-09-22T06:48:46.393Z,13.90
2018-09-22T06:51:13.762Z,7.23
2018-09-22T06:53:41.590Z,6.17
2018-09-22T06:56:08.941Z,9.23
2018-09-22T06:58:36.505Z,7.17
2018-09-22T07:01:03.957Z,4.30
2018-09-22T07:03:31.428Z,8.07
2018-09-22T07:05:59.817Z,5.70
2018-09-22T07:08:27.300Z,7.50
2018-09-22T07:10:54.809Z,9.20
2018-09-22T07:13:22.150Z,8.60
2018-09-22T07:15:49.913Z,6.77
2018-09-22T07:18:17.841Z,6.67
2018-09-22T07:20:51.161Z,7.30
2018-09-22T07:23:18.965Z,8.90
2018-09-22T07:25:46.424Z,7.63
2018-09-22T07:28:13.899Z,7.47
2018-09-22T07:30:41.443Z,6.00
2018-09-22T07:33:09.214Z,7.97
2018-09-22T07:35:36.705Z,5.80
2018-09-22T07:38:04.248Z,6.20
2018-09-22T07:40:32.124Z,5.87
2018-09-22T07:42:59.543Z,5.57
2018-09-22T07:45:27.028Z,5.23
2018-09-22T07:47:54.748Z,7.20
2018-09-22T07:50:22.122Z,4.97
2018-09-22T07:52:49.625Z,4.87
2018-09-22T07:55:16.981Z,7.00
2018-09-22T07:57:44.357Z,7.17
2018-09-22T08:00:11.980Z,5.10
2018-09-22T08:02:39.269Z,7.30
2018-09-22T08:05:07.384Z,6.60
2018-09-22T08:07:34.757Z,6.70
2018-09-22T08:10:02.257Z,4.67
2018-09-22T08:12:29.613Z,6.97
2018-09-22T08:14:57.146Z,6.63
2018-09-22T08:17:24.545Z,6.20
2018-09-22T08:19:51.890Z,10.83
2018-09-22T08:22:19.546Z,7.13
2018-09-22T08:24:47.074Z,6.13
2018-09-22T08:27:14.405Z,7.97
2018-09-22T08:29:41.786Z,2.70
2018-09-22T08:32:09.441Z,5.30
2018-09-22T08:34:36.929Z,4.17
2018-09-22T08:37:04.857Z,7.07
2018-09-22T08:39:32.300Z,3.80
2018-09-22T08:41:59.849Z,6.77
2018-09-22T08:44:27.521Z,6.90
2018-09-22T08:46:54.857Z,4.43
2018-09-22T08:49:22.315Z,4.70
2018-09-22T08:51:49.699Z,4.13
2018-09-22T08:54:17.062Z,4.87
2018-09-22T08:56:44.781Z,12.27
2018-09-22T08:59:12.296Z,9.27
2018-09-22T09:01:39.689Z,4.60
2018-09-22T09:04:07.049Z,7.80
2018-09-22T09:06:34.521Z,7.97
2018-09-22T09:09:02.158Z,3.23
2018-09-22T09:11:29.570Z,5.23
2018-09-22T09:13:57.158Z,5.77
2018-09-22T09:16:24.599Z,6.87
2018-09-22T09:18:51.925Z,5.23
2018-09-22T09:21:19.339Z,9.20
2018-09-22T09:23:46.834Z,3.23
2018-09-22T09:26:14.165Z,5.90
2018-09-22T09:28:45.561Z,2.83
2018-09-22T09:31:13.062Z,4.90
2018-09-22T09:33:40.477Z,5.20
2018-09-22T09:36:07.957Z,5.90
2018-09-22T09:38:35.370Z,2.73
2018-09-22T09:41:02.757Z,6.67
2018-09-22T09:43:30.313Z,7.93
2018-09-22T09:45:59.440Z,8.17
2018-09-22T09:48:26.902Z,7.27
2018-09-22T09:50:54.455Z,3.10
2018-09-22T09:53:22.175Z,5.10
2018-09-22T09:55:49.617Z,5.57
2018-09-22T09:58:17.058Z,5.60
2018-09-22T10:00:45.586Z,3.63
2018-09-22T10:03:14.414Z,3.90
2018-09-22T10:05:42.008Z,4.00
2018-09-22T10:08:09.624Z,4.43
2018-09-22T10:10:37.230Z,4.07
2018-09-22T10:13:04.740Z,6.87
2018-09-22T10:15:32.193Z,7.13
2018-09-22T10:18:00.957Z,4.97
2018-09-22T10:20:28.369Z,5.63
2018-09-22T10:22:55.803Z,6.77
2018-09-22T10:25:23.284Z,10.37
2018-09-22T10:27:50.800Z,5.23
2018-09-22T10:30:18.341Z,4.23
2018-09-22T10:32:45.769Z,5.57
2018-09-22T10:35:13.180Z,5.20
2018-09-22T10:37:40.819Z,3.80
2018-09-22T10:40:08.453Z,6.00
2018-09-22T10:42:35.890Z,6.43
2018-09-22T10:45:03.663Z,7.90
2018-09-22T10:47:31.286Z,4.50
2018-09-22T10:49:59.533Z,3.23
2018-09-22T10:52:27.067Z,6.77
2018-09-22T10:54:54.540Z,5.83
2018-09-22T10:57:22.007Z,4.57
2018-09-22T10:59:49.971Z,4.93
2018-09-22T11:02:17.437Z,5.40
2018-09-22T11:04:44.951Z,5.37
2018-09-22T11:07:12.629Z,3.17
2018-09-22T11:09:41.059Z,4.50
2018-09-22T11:12:08.808Z,6.67
2018-09-22T11:14:36.219Z,6.57
2018-09-22T11:17:03.690Z,5.13
2018-09-22T11:19:31.375Z,6.87
2018-09-22T11:21:59.491Z,3.40
2018-09-22T11:24:26.927Z,6.93
2018-09-22T11:26:54.423Z,3.63
2018-09-22T11:29:22.112Z,3.57
2018-09-22T11:31:49.626Z,3.00
2018-09-22T11:34:17.063Z,3.90
2018-09-22T11:36:44.523Z,7.30
2018-09-22T11:39:12.278Z,3.10
2018-09-22T11:41:39.763Z,5.97
2018-09-22T11:44:07.814Z,4.23
2018-09-22T11:46:35.299Z,7.90
2018-09-22T11:49:02.983Z,4.57
2018-09-22T11:51:30.682Z,6.00
2018-09-22T11:53:58.335Z,5.73
2018-09-22T11:56:26.322Z,5.43
2018-09-22T11:58:53.789Z,8.73
2018-09-22T12:01:21.322Z,9.30
2018-09-22T12:03:48.801Z,4.13
2018-09-22T12:06:16.254Z,7.33
2018-09-22T12:08:43.692Z,5.23
2018-09-22T12:11:11.143Z,7.20
2018-09-22T12:13:38.978Z,4.03
2018-09-22T12:16:06.539Z,3.93
2018-09-22T12:18:33.986Z,3.53
2018-09-22T12:21:01.705Z,6.30
2018-09-22T12:23:29.195Z,9.67
2018-09-22T12:25:56.867Z,5.63
2018-09-22T12:28:24.358Z,2.47
2018-09-22T12:30:51.832Z,5.87
2018-09-22T12:33:19.295Z,5.57
2018-09-22T12:35:46.809Z,17.63
2018-09-22T12:38:14.289Z,6.43
2018-09-22T12:40:41.808Z,4.07
2018-09-22T12:43:09.434Z,4.23
2018-09-22T12:45:36.865Z,3.13
2018-09-22T12:48:04.653Z,6.30
2018-09-22T12:50:32.118Z,4.07
2018-09-22T12:52:59.693Z,4.90
2018-09-22T12:55:27.252Z,9.03
2018-09-22T12:57:54.708Z,4.50
2018-09-22T13:00:22.151Z,3.53
2018-09-22T13:02:49.625Z,5.53
2018-09-22T13:05:17.395Z,6.00
2018-09-22T13:07:45.478Z,3.73
2018-09-22T13:10:12.938Z,6.00
2018-09-22T13:12:40.389Z,7.43
2018-09-22T13:15:07.931Z,5.97
2018-09-22T13:17:35.523Z,6.73
2018-09-22T13:20:03.095Z,7.87
2018-09-22T13:22:30.487Z,2.50
2018-09-22T13:24:58.258Z,3.50
2018-09-22T13:27:25.743Z,4.60
2018-09-22T13:29:53.275Z,6.77
2018-09-22T13:32:20.759Z,4.43
2018-09-22T13:34:48.196Z,4.90
2018-09-22T13:37:15.823Z,7.53
2018-09-22T13:39:43.193Z,6.23
2018-09-22T13:42:10.630Z,7.53
2018-09-22T13:44:38.083Z,6.40
2018-09-22T13:47:05.717Z,4.43
2018-09-22T13:49:33.273Z,5.93
2018-09-22T13:52:01.692Z,6.70
2018-09-22T13:54:29.155Z,3.67
2018-09-22T13:56:56.727Z,4.47
2018-09-22T13:59:24.376Z,4.33
2018-09-22T14:01:51.835Z,9.60
2018-09-22T14:04:19.272Z,5.73
2018-09-22T14:06:46.879Z,6.30
2018-09-22T14:09:14.489Z,5.83
2018-09-22T14:11:42.012Z,4.60
2018-09-22T14:14:09.427Z,5.07
2018-09-22T14:16:36.981Z,4.30
2018-09-22T14:19:04.456Z,5.80
2018-09-22T14:21:32.080Z,5.27
2018-09-22T14:24:00.453Z,4.13
2018-09-22T14:26:27.936Z,5.53
2018-09-22T14:28:55.554Z,2.67
2018-09-22T14:31:23.229Z,5.10
2018-09-22T14:33:50.692Z,4.33
2018-09-22T14:36:18.110Z,5.63
2018-09-22T14:38:45.652Z,5.53
2018-09-22T14:41:13.214Z,6.57
2018-09-22T14:43:40.671Z,4.73
2018-09-22T14:46:08.115Z,5.07
2018-09-22T14:48:35.617Z,4.10
2018-09-22T14:51:04.144Z,3.63
2018-09-22T14:53:31.735Z,4.00
2018-09-22T14:56:00.032Z,6.80
2018-09-22T14:58:27.642Z,3.13
2018-09-22T15:00:55.130Z,6.30
2018-09-22T15:03:22.620Z,4.07
2018-09-22T15:05:50.043Z,7.63
2018-09-22T15:08:17.553Z,8.47
2018-09-22T15:10:45.066Z,4.57
2018-09-22T15:13:12.634Z,6.53
2018-09-22T15:15:40.124Z,6.00
2018-09-22T15:18:07.550Z,5.40
2018-09-22T15:20:35.257Z,7.37
2018-09-22T15:23:02.840Z,7.10
2018-09-22T15:25:30.373Z,5.67
2018-09-22T15:27:57.965Z,3.93
2018-09-22T15:30:25.681Z,5.17
2018-09-22T15:32:53.132Z,5.40
2018-09-22T15:35:20.758Z,7.93
2018-09-22T15:37:48.458Z,4.43
2018-09-22T15:40:15.968Z,4.97
2018-09-22T15:42:43.382Z,8.47
2018-09-22T15:45:10.848Z,6.17
2018-09-22T15:47:38.299Z,3.73
2018-09-22T15:50:05.925Z,3.87
2018-09-22T15:52:33.509Z,4.40
2018-09-22T15:55:00.870Z,7.70
2018-09-22T15:57:28.253Z,11.10
2018-09-22T15:59:55.629Z,6.37
2018-09-22T16:02:22.989Z,7.37
2018-09-22T16:04:50.692Z,9.63
2018-09-22T16:07:18.069Z,5.07
2018-09-22T16:09:45.486Z,4.40
2018-09-22T16:12:15.571Z,5.50
2018-09-22T16:14:42.893Z,4.20
2018-09-22T16:17:10.250Z,6.10
2018-09-22T16:19:37.597Z,6.90
2018-09-22T16:22:04.980Z,4.93
2018-09-22T16:24:32.513Z,5.73
2018-09-22T16:26:59.896Z,5.33
2018-09-22T16:29:27.277Z,4.53
2018-09-22T16:31:54.646Z,4.17
2018-09-22T16:34:21.992Z,4.37
2018-09-22T16:36:49.305Z,3.97
2018-09-22T16:39:16.692Z,4.63
2018-09-22T16:41:44.013Z,4.27
2018-09-22T16:44:11.376Z,5.20
2018-09-22T16:46:39.004Z,3.27
2018-09-22T16:49:06.381Z,4.83
2018-09-22T16:51:33.684Z,4.30
2018-09-22T16:54:02.253Z,2.53
2018-09-22T16:56:29.570Z,3.80
2018-09-22T16:58:56.937Z,2.97
2018-09-22T17:01:24.394Z,2.30
2018-09-22T17:03:51.804Z,3.63
2018-09-22T17:06:19.182Z,3.83
2018-09-22T17:08:46.601Z,1.70
2018-09-22T17:11:13.965Z,2.63
2018-09-22T17:13:41.273Z,2.73
2018-09-22T17:16:08.699Z,3.63
2018-09-22T17:18:36.100Z,2.10
2018-09-22T17:21:03.464Z,1.83
2018-09-22T17:23:30.841Z,3.83
2018-09-22T17:25:58.381Z,4.80
2018-09-22T17:28:25.907Z,2.50
2018-09-22T17:30:53.273Z,1.90
2018-09-22T17:33:20.633Z,3.00
2018-09-22T17:35:47.961Z,3.23
2018-09-22T17:38:15.307Z,4.67
2018-09-22T17:40:42.805Z,3.00
2018-09-22T17:43:10.422Z,4.00
2018-09-22T17:45:37.809Z,4.23
2018-09-22T17:48:05.162Z,4.07
2018-09-22T17:50:32.477Z,4.30
2018-09-22T17:52:59.786Z,4.77
2018-09-22T17:55:27.206Z,5.53
2018-09-22T17:57:54.556Z,6.60
2018-09-22T18:00:21.893Z,3.80
2018-09-22T18:02:49.689Z,3.17
2018-09-22T18:05:17.131Z,7.57
2018-09-22T18:07:44.891Z,3.90
2018-09-22T18:10:12.232Z,3.60
2018-09-22T18:12:39.686Z,2.97
2018-09-22T18:15:07.102Z,3.93
2018-09-22T18:17:34.410Z,3.40
2018-09-22T18:20:02.259Z,4.43
2018-09-22T18:22:29.582Z,3.07
2018-09-22T18:24:56.949Z,4.87
2018-09-22T18:27:24.357Z,5.00
2018-09-22T18:29:51.703Z,5.07
2018-09-22T18:32:19.068Z,4.27
2018-09-22T18:34:46.376Z,4.20
2018-09-22T18:37:13.737Z,9.43
2018-09-22T18:39:41.137Z,2.87
2018-09-22T18:42:08.532Z,3.70
2018-09-22T18:44:35.877Z,4.83
2018-09-22T18:47:03.211Z,6.10
2018-09-22T18:49:30.605Z,4.80
2018-09-22T18:51:58.002Z,4.17
2018-09-22T18:54:25.324Z,4.73
2018-09-22T18:56:52.653Z,6.67
2018-09-22T18:59:20.201Z,4.60
2018-09-22T19:01:47.965Z,5.57
2018-09-22T19:04:15.302Z,4.47
2018-09-22T19:06:42.976Z,4.63
2018-09-22T19:09:10.561Z,4.70
2018-09-22T19:11:37.910Z,6.33
2018-09-22T19:15:08.337Z,4.27
2018-09-22T19:18:10.129Z,6.43
2018-09-22T19:20:50.964Z,4.57
2018-09-22T19:23:23.425Z,4.43
2018-09-22T19:25:54.426Z,4.93
2018-09-22T19:28:25.671Z,5.23
2018-09-22T19:30:55.086Z,5.13
2018-09-22T19:33:27.953Z,7.23
2018-09-22T19:36:00.425Z,9.47
2018-09-22T19:38:33.320Z,4.60
2018-09-22T19:41:04.769Z,5.37
2018-09-22T19:43:55.949Z,7.70
2018-09-22T19:46:34.033Z,4.43
2018-09-22T19:49:06.063Z,5.53
2018-09-22T19:51:40.898Z,4.80
2018-09-22T19:54:08.305Z,6.67
2018-09-22T19:56:35.635Z,6.67
2018-09-22T19:59:03.036Z,5.73
2018-09-22T20:01:30.374Z,5.27
2018-09-22T20:03:57.748Z,5.93
2018-09-22T20:06:25.133Z,7.80
2018-09-22T20:08:52.529Z,6.40
2018-09-22T20:11:26.613Z,5.67
2018-09-22T20:13:53.954Z,7.60
2018-09-22T20:16:21.288Z,6.07
2018-09-22T20:18:48.692Z,6.80
2018-09-22T20:21:16.048Z,8.10
2018-09-22T20:23:43.422Z,6.63
2018-09-22T20:26:10.749Z,7.13
2018-09-22T20:28:38.093Z,5.60
2018-09-22T20:31:05.673Z,10.87
2018-09-22T20:33:32.989Z,7.50
2018-09-22T20:36:00.439Z,7.13
2018-09-22T20:38:27.809Z,7.00
2018-09-22T20:40:55.177Z,5.67
2018-09-22T20:43:22.589Z,7.67
2018-09-22T20:45:50.042Z,6.10
2018-09-22T20:48:17.409Z,5.63
2018-09-22T20:50:44.830Z,5.67
2018-09-22T20:53:12.189Z,5.60
2018-09-22T20:55:39.651Z,5.60
2018-09-22T20:58:07.022Z,5.47
2018-09-22T21:00:34.408Z,6.20
2018-09-22T21:03:01.762Z,7.20
2018-09-22T21:05:29.160Z,4.33
2018-09-22T21:07:56.549Z,8.73
2018-09-22T21:10:23.896Z,5.33
2018-09-22T21:12:51.281Z,4.70
2018-09-22T21:15:18.649Z,5.50
2018-09-22T21:17:45.997Z,4.27
2018-09-22T21:20:13.382Z,5.10
2018-09-22T21:22:40.863Z,6.83
2018-09-22T21:25:08.195Z,5.60
2018-09-22T21:27:35.533Z,6.73
2018-09-22T21:30:03.405Z,5.73
2018-09-22T21:32:30.745Z,5.83
2018-09-22T21:34:58.200Z,6.27
2018-09-22T21:37:25.573Z,5.90
2018-09-22T21:39:52.995Z,5.00
2018-09-22T21:42:20.382Z,4.80
2018-09-22T21:44:47.753Z,6.00
2018-09-22T21:47:15.226Z,8.00
2018-09-22T21:49:42.477Z,6.23
2018-09-22T21:52:09.809Z,6.93
2018-09-22T21:54:37.457Z,7.70
2018-09-22T21:57:04.806Z,6.50
2018-09-22T21:59:32.157Z,7.33
2018-09-22T22:01:59.545Z,8.10
2018-09-22T22:04:26.887Z,10.50
2018-09-22T22:06:54.229Z,9.87
2018-09-22T22:09:21.688Z,9.00
2018-09-22T22:11:49.009Z,10.13
2018-09-22T22:14:16.340Z,10.60
2018-09-22T22:16:43.669Z,11.57
2018-09-22T22:19:10.981Z,12.00
2018-09-22T22:21:38.314Z,11.03
2018-09-22T22:24:05.737Z,13.30
2018-09-22T22:26:39.782Z,12.60
2018-09-22T22:29:07.241Z,14.33
2018-09-22T22:33:43.291Z,11.93
2018-09-22T22:36:10.663Z,14.87
2018-09-22T22:38:38.017Z,15.33
2018-09-22T22:41:05.584Z,12.83
2018-09-22T22:43:33.098Z,17.13
2018-09-22T22:46:00.448Z,13.30
2018-09-22T22:48:27.771Z,14.67
2018-09-22T22:50:55.125Z,15.17
2018-09-22T22:53:22.477Z,13.13
2018-09-22T22:55:49.832Z,16.23
2018-09-22T22:58:17.188Z,13.80
2018-09-22T23:00:44.592Z,14.20
2018-09-22T23:03:11.925Z,13.73
2018-09-22T23:05:39.279Z,17.60
2018-09-22T23:08:06.633Z,18.23
2018-09-22T23:10:33.985Z,16.47
2018-09-22T23:13:01.397Z,15.93
2018-09-22T23:15:28.893Z,14.47
2018-09-22T23:17:56.277Z,14.10
2018-09-22T23:20:23.629Z,15.60
2018-09-22T23:22:51.012Z,15.40
2018-09-22T23:25:18.381Z,16.00
2018-09-22T23:27:45.777Z,14.80
2018-09-22T23:30:13.131Z,14.80
2018-09-22T23:32:40.467Z,14.30
2018-09-22T23:35:07.821Z,14.97
2018-09-22T23:37:35.184Z,18.83
2018-09-22T23:40:03.328Z,15.10
2018-09-22T23:42:30.721Z,13.13
2018-09-22T23:44:58.242Z,17.70
2018-09-22T23:47:25.697Z,15.93
2018-09-22T23:49:53.177Z,13.40
2018-09-22T23:52:20.573Z,15.40
2018-09-22T23:54:47.930Z,14.87
2018-09-22T23:57:15.285Z,14.33
2018-09-22T23:59:42.622Z,16.07
